createdAt,value
2022-11-23T00:02:29.471Z,0.29
2022-11-23T00:05:16.439Z,0.21
2022-11-23T00:08:03.358Z,0.16
2022-11-23T00:10:50.192Z,0.10
2022-11-23T00:13:40.106Z,0.21
2022-11-23T00:16:29.210Z,0.32
2022-11-23T00:19:16.046Z,0.33
2022-11-23T00:22:03.108Z,0.37
2022-11-23T00:24:50.012Z,0.54
2022-11-23T00:27:36.770Z,0.47
2022-11-23T00:30:23.562Z,0.46
2022-11-23T00:33:10.403Z,0.44
2022-11-23T00:36:07.831Z,0.49
2022-11-23T00:38:54.787Z,0.55
2022-11-23T00:41:41.578Z,0.42
2022-11-23T00:44:28.334Z,0.46
2022-11-23T00:47:15.167Z,0.45
2022-11-23T00:50:02.517Z,0.37
2022-11-23T00:52:49.319Z,0.17
2022-11-23T00:55:36.175Z,0.11
2022-11-23T00:58:23.864Z,-0.11
2022-11-23T01:01:13.732Z,-0.18
2022-11-23T01:04:02.248Z,-0.27
2022-11-23T01:06:49.023Z,-0.29
2022-11-23T01:09:35.833Z,-0.39
2022-11-23T01:12:22.669Z,-0.30
2022-11-23T01:15:09.784Z,-0.32
2022-11-23T01:17:56.634Z,-0.35
2022-11-23T01:20:43.470Z,-0.41
2022-11-23T01:23:30.469Z,-0.47
2022-11-23T01:26:17.391Z,-0.40
2022-11-23T01:29:04.275Z,-0.52
2022-11-23T01:31:51.119Z,-0.49
2022-11-23T01:34:37.984Z,-0.50
2022-11-23T01:37:24.846Z,-0.50
2022-11-23T01:40:12.307Z,-0.53
2022-11-23T01:43:01.158Z,-0.58
2022-11-23T01:45:56.841Z,-0.65
2022-11-23T01:48:49.109Z,-0.77
2022-11-23T01:51:40.470Z,-0.74
2022-11-23T01:54:32.483Z,-0.72
2022-11-23T01:57:23.540Z,-0.75
2022-11-23T02:00:13.442Z,-0.82
2022-11-23T02:03:01.010Z,-0.85
2022-11-23T02:05:54.028Z,-0.92
2022-11-23T02:08:42.361Z,-1.01
2022-11-23T02:11:29.271Z,-1.08
2022-11-23T02:14:20.513Z,-1.07
2022-11-23T02:17:10.308Z,-1.13
2022-11-23T02:20:08.544Z,-1.08
2022-11-23T02:23:04.380Z,-1.19
2022-11-23T02:26:08.792Z,-1.57
2022-11-23T02:29:19.354Z,-1.52
2022-11-23T02:32:06.172Z,-1.67
2022-11-23T02:34:53.047Z,-1.61
2022-11-23T02:37:42.148Z,-1.45
2022-11-23T02:40:33.427Z,-1.42
2022-11-23T02:43:20.238Z,-1.30
2022-11-23T02:46:07.836Z,-1.22
2022-11-23T02:48:54.668Z,-1.11
2022-11-23T02:51:41.503Z,-1.06
2022-11-23T02:54:28.306Z,-1.00
2022-11-23T02:57:15.376Z,-1.01
2022-11-23T03:00:02.297Z,-0.91
2022-11-23T03:02:49.171Z,-0.74
2022-11-23T03:05:36.031Z,-0.69
2022-11-23T03:08:22.788Z,-0.63
2022-11-23T03:11:09.591Z,-0.54
2022-11-23T03:13:56.425Z,-0.39
2022-11-23T03:16:43.342Z,-0.32
2022-11-23T03:19:30.447Z,-0.29
2022-11-23T03:22:17.667Z,-0.30
2022-11-23T03:25:04.864Z,-0.19
2022-11-23T03:27:51.717Z,-0.19
2022-11-23T03:30:38.472Z,-0.31
2022-11-23T03:33:25.314Z,-0.15
2022-11-23T03:36:12.059Z,-0.10
2022-11-23T03:38:59.140Z,-0.05
2022-11-23T03:41:45.921Z,-0.11
2022-11-23T03:44:32.719Z,-0.33
2022-11-23T03:47:19.577Z,-0.47
2022-11-23T03:50:07.007Z,-0.39
2022-11-23T03:52:54.635Z,-0.31
2022-11-23T03:55:41.616Z,-0.18
2022-11-23T03:58:28.428Z,-0.24
2022-11-23T04:01:15.399Z,-0.17
2022-11-23T04:04:02.215Z,-0.07
2022-11-23T04:06:49.078Z,-0.07
2022-11-23T04:09:35.885Z,-0.09
2022-11-23T04:12:22.679Z,0.04
2022-11-23T04:15:10.323Z,0.06
2022-11-23T04:17:57.179Z,0.02
2022-11-23T04:20:44.126Z,-0.01
2022-11-23T04:23:30.917Z,-0.01
2022-11-23T04:26:17.801Z,0.01
2022-11-23T04:29:04.654Z,0.10
2022-11-23T04:31:51.579Z,0.14
2022-11-23T04:34:38.345Z,0.08
2022-11-23T04:37:25.160Z,0.16
2022-11-23T04:40:12.491Z,0.23
2022-11-23T04:43:01.848Z,0.21
2022-11-23T04:45:49.026Z,0.20
2022-11-23T04:48:35.787Z,0.31
2022-11-23T04:51:22.995Z,0.16
2022-11-23T04:54:10.256Z,0.12
2022-11-23T04:56:57.363Z,0.11
2022-11-23T04:59:44.136Z,0.13
2022-11-23T05:02:30.945Z,-0.04
2022-11-23T05:05:17.884Z,-0.03
2022-11-23T05:08:05.022Z,-0.01
2022-11-23T05:10:51.822Z,0.06
2022-11-23T05:13:38.660Z,-0.11
2022-11-23T05:16:25.478Z,-0.08
2022-11-23T05:19:12.335Z,-0.14
2022-11-23T05:21:59.239Z,-0.13
2022-11-23T05:24:48.863Z,-0.34
2022-11-23T05:27:35.950Z,-0.45
2022-11-23T05:30:23.484Z,-0.62
2022-11-23T05:33:10.411Z,-0.71
2022-11-23T05:35:57.268Z,-0.77
2022-11-23T05:38:44.133Z,-0.78
2022-11-23T05:41:30.903Z,-0.92
2022-11-23T05:44:17.696Z,-0.98
2022-11-23T05:47:04.600Z,-0.93
2022-11-23T05:49:51.475Z,-0.90
2022-11-23T05:52:38.374Z,-0.93
2022-11-23T05:55:26.354Z,-0.85
2022-11-23T05:58:13.148Z,-0.77
2022-11-23T06:01:01.011Z,-0.68
2022-11-23T06:03:50.164Z,-0.56
2022-11-23T06:06:36.991Z,-0.40
2022-11-23T06:09:23.834Z,-0.23
2022-11-23T06:12:10.675Z,-0.06
2022-11-23T06:14:57.547Z,0.09
2022-11-23T06:17:44.464Z,0.24
2022-11-23T06:20:31.300Z,0.33
2022-11-23T06:23:18.088Z,0.43
2022-11-23T06:26:04.963Z,0.41
2022-11-23T06:28:51.793Z,0.54
2022-11-23T06:31:38.621Z,0.67
2022-11-23T06:34:25.445Z,0.74
2022-11-23T06:37:12.580Z,0.76
2022-11-23T06:39:59.344Z,0.76
2022-11-23T06:42:46.515Z,0.85
2022-11-23T06:45:33.294Z,0.75
2022-11-23T06:48:20.219Z,0.87
2022-11-23T06:51:07.050Z,1.03
2022-11-23T06:53:53.826Z,1.11
2022-11-23T06:56:40.622Z,1.16
2022-11-23T06:59:27.479Z,1.25
2022-11-23T07:02:14.784Z,1.25
2022-11-23T07:05:01.603Z,1.26
2022-11-23T07:07:48.501Z,1.33
2022-11-23T07:10:35.702Z,1.37
2022-11-23T07:13:22.467Z,1.46
2022-11-23T07:16:09.775Z,1.46
2022-11-23T07:18:57.690Z,1.59
2022-11-23T07:21:45.456Z,1.44
2022-11-23T07:24:38.604Z,1.64
2022-11-23T07:27:27.480Z,1.62
2022-11-23T07:30:14.719Z,1.71
2022-11-23T07:33:03.771Z,1.74
2022-11-23T07:35:50.608Z,1.84
2022-11-23T07:38:37.400Z,1.96
2022-11-23T07:41:25.830Z,1.87
2022-11-23T07:44:12.659Z,1.91
2022-11-23T07:46:59.599Z,1.93
2022-11-23T07:49:46.370Z,1.73
2022-11-23T07:52:33.347Z,1.88
2022-11-23T07:55:20.434Z,1.82
2022-11-23T07:58:07.283Z,1.92
2022-11-23T08:00:54.124Z,1.96
2022-11-23T08:03:41.253Z,1.92
2022-11-23T08:06:28.927Z,1.90
2022-11-23T08:09:15.705Z,1.96
2022-11-23T08:12:02.593Z,2.03
2022-11-23T08:14:49.357Z,2.13
2022-11-23T08:17:36.166Z,2.33
2022-11-23T08:20:23.508Z,2.51
2022-11-23T08:23:10.656Z,2.49
2022-11-23T08:25:57.519Z,2.64
2022-11-23T08:28:44.771Z,2.82
2022-11-23T08:31:32.132Z,3.09
2022-11-23T08:34:19.305Z,3.28
2022-11-23T08:37:06.121Z,3.07
2022-11-23T08:39:52.899Z,3.52
2022-11-23T08:42:39.827Z,4.14
2022-11-23T08:45:27.167Z,5.06
2022-11-23T08:48:14.018Z,6.32
2022-11-23T08:51:00.929Z,9.60
2022-11-23T08:53:48.104Z,11.94
2022-11-23T08:56:35.011Z,11.70
2022-11-23T08:59:21.955Z,10.20
2022-11-23T09:02:12.528Z,12.24
2022-11-23T09:04:59.376Z,12.37
2022-11-23T09:07:46.307Z,8.54
2022-11-23T09:10:33.150Z,11.13
2022-11-23T09:13:20.015Z,13.23
2022-11-23T09:16:07.956Z,12.96
2022-11-23T09:18:57.828Z,14.59
2022-11-23T09:21:44.692Z,14.61
2022-11-23T09:24:31.997Z,14.53
2022-11-23T09:27:19.327Z,15.78
2022-11-23T09:30:06.662Z,16.63
2022-11-23T09:32:56.432Z,17.75
2022-11-23T09:35:44.155Z,16.43
2022-11-23T09:38:55.010Z,14.18
2022-11-23T09:41:57.983Z,12.22
2022-11-23T09:44:53.923Z,11.73
2022-11-23T09:47:51.990Z,12.11
2022-11-23T09:50:59.476Z,14.12
2022-11-23T09:53:51.254Z,15.57
2022-11-23T09:56:41.265Z,17.23
2022-11-23T09:59:38.385Z,16.28
2022-11-23T10:02:29.023Z,15.14
2022-11-23T10:05:18.909Z,15.51
2022-11-23T10:08:21.961Z,17.67
2022-11-23T10:11:48.985Z,17.04
2022-11-23T10:14:53.887Z,12.35
2022-11-23T10:17:55.545Z,13.07
2022-11-23T10:21:14.612Z,11.59
2022-11-23T10:24:19.259Z,12.03
2022-11-23T10:27:15.524Z,10.11
2022-11-23T10:30:02.677Z,12.15
2022-11-23T10:33:46.827Z,10.35
2022-11-23T10:36:36.359Z,8.34
2022-11-23T10:39:25.786Z,7.99
2022-11-23T10:42:30.631Z,8.00
2022-11-23T10:45:26.671Z,9.75
2022-11-23T10:48:13.555Z,10.83
2022-11-23T10:51:21.642Z,12.03
2022-11-23T10:54:28.504Z,11.10
2022-11-23T10:57:28.212Z,8.65
2022-11-23T11:00:18.342Z,10.54
2022-11-23T11:03:23.676Z,8.83
2022-11-23T11:06:11.654Z,10.34
2022-11-23T11:09:03.708Z,10.52
2022-11-23T11:11:52.829Z,9.23
2022-11-23T11:14:55.398Z,7.75
2022-11-23T11:17:42.527Z,9.48
2022-11-23T11:20:34.476Z,10.69
2022-11-23T11:23:22.979Z,10.98
2022-11-23T11:26:19.170Z,11.51
2022-11-23T11:29:09.942Z,9.36
2022-11-23T11:32:20.329Z,9.19
2022-11-23T11:35:21.005Z,8.08
2022-11-23T11:38:24.644Z,7.76
2022-11-23T11:41:14.720Z,8.02
2022-11-23T11:44:21.127Z,9.62
2022-11-23T11:47:36.471Z,9.99
2022-11-23T11:50:29.976Z,9.46
2022-11-23T11:53:33.548Z,8.36
2022-11-23T11:56:29.387Z,9.67
2022-11-23T11:59:25.242Z,8.31
2022-11-23T12:02:26.536Z,8.13
2022-11-23T12:05:24.040Z,7.78
2022-11-23T12:08:13.529Z,7.14
2022-11-23T12:11:02.253Z,6.78
2022-11-23T12:13:49.828Z,6.69
2022-11-23T12:16:42.366Z,6.25
2022-11-23T12:19:45.577Z,6.31
2022-11-23T12:22:58.249Z,6.50
2022-11-23T12:26:00.275Z,6.66
2022-11-23T12:29:12.281Z,6.70
2022-11-23T12:32:11.181Z,6.57
2022-11-23T12:35:12.931Z,6.23
2022-11-23T12:37:59.709Z,6.70
2022-11-23T12:41:01.722Z,6.82
2022-11-23T12:43:58.875Z,6.77
2022-11-23T12:46:54.959Z,6.62
2022-11-23T12:49:56.644Z,6.41
2022-11-23T12:53:14.641Z,6.49
2022-11-23T12:56:14.252Z,6.73
2022-11-23T12:59:01.132Z,6.34
2022-11-23T13:01:56.598Z,6.26
2022-11-23T13:05:17.350Z,6.16
2022-11-23T13:08:19.377Z,6.27
2022-11-23T13:11:27.395Z,6.42
2022-11-23T13:14:56.051Z,6.25
2022-11-23T13:18:07.925Z,6.45
2022-11-23T13:21:16.491Z,6.43
2022-11-23T13:24:03.860Z,6.33
2022-11-23T13:27:15.457Z,6.41
2022-11-23T13:30:21.501Z,6.48
2022-11-23T13:33:19.961Z,6.43
2022-11-23T13:36:15.369Z,6.26
2022-11-23T13:39:38.137Z,6.53
2022-11-23T13:42:26.919Z,6.25
2022-11-23T13:45:23.764Z,6.30
2022-11-23T13:48:19.423Z,6.32
2022-11-23T13:51:27.876Z,6.14
2022-11-23T13:54:23.593Z,5.86
2022-11-23T13:57:13.294Z,5.95
2022-11-23T14:00:37.732Z,5.79
2022-11-23T14:03:42.931Z,5.71
2022-11-23T14:06:42.404Z,5.81
2022-11-23T14:09:39.570Z,5.72
2022-11-23T14:12:49.475Z,5.86
2022-11-23T14:15:39.888Z,5.99
2022-11-23T14:18:36.713Z,6.02
2022-11-23T14:21:54.873Z,5.87
2022-11-23T14:24:47.567Z,5.93
2022-11-23T14:27:53.371Z,5.70
2022-11-23T14:31:06.885Z,5.49
2022-11-23T14:34:04.521Z,5.43
2022-11-23T14:37:17.506Z,5.18
2022-11-23T14:40:28.163Z,5.30
2022-11-23T14:43:19.366Z,5.18
2022-11-23T14:46:25.492Z,5.22
2022-11-23T14:49:15.083Z,5.36
2022-11-23T14:52:04.129Z,5.35
2022-11-23T14:54:53.451Z,5.46
2022-11-23T14:57:46.453Z,5.37
2022-11-23T15:00:40.168Z,5.38
2022-11-23T15:06:45.497Z,5.11
2022-11-23T15:10:00.684Z,5.12
2022-11-23T15:12:48.939Z,5.12
2022-11-23T15:15:38.105Z,5.16
2022-11-23T15:18:29.859Z,5.17
2022-11-23T15:21:27.597Z,5.23
2022-11-23T15:24:26.336Z,5.16
2022-11-23T15:27:28.515Z,5.06
2022-11-23T15:30:19.772Z,5.17
2022-11-23T15:33:11.634Z,5.11
2022-11-23T15:35:58.661Z,5.07
2022-11-23T15:38:45.637Z,5.08
2022-11-23T15:41:33.415Z,5.13
2022-11-23T15:44:26.124Z,5.10
2022-11-23T15:47:27.435Z,5.07
2022-11-23T15:50:14.719Z,5.10
2022-11-23T15:53:02.322Z,5.12
2022-11-23T15:55:50.153Z,5.12
2022-11-23T15:58:37.003Z,5.16
2022-11-23T16:01:24.118Z,5.13
2022-11-23T16:04:25.977Z,5.08
2022-11-23T16:07:17.035Z,5.12
2022-11-23T16:10:06.736Z,5.11
2022-11-23T16:12:55.983Z,5.13
2022-11-23T16:15:44.267Z,5.16
2022-11-23T16:18:34.050Z,5.22
2022-11-23T16:21:22.063Z,5.23
2022-11-23T16:24:20.097Z,5.12
2022-11-23T16:27:14.820Z,5.18
2022-11-23T16:30:04.143Z,5.14
2022-11-23T16:32:51.094Z,5.14
2022-11-23T16:35:37.957Z,5.10
2022-11-23T16:38:25.857Z,4.90
2022-11-23T16:41:12.762Z,4.86
2022-11-23T16:43:59.753Z,4.79
2022-11-23T16:46:47.643Z,4.70
2022-11-23T16:49:34.789Z,4.56
2022-11-23T16:52:22.914Z,4.53
2022-11-23T16:55:10.434Z,4.57
2022-11-23T16:57:57.293Z,4.63
2022-11-23T17:00:44.651Z,4.69
2022-11-23T17:03:33.293Z,4.76
2022-11-23T17:06:23.415Z,4.80
2022-11-23T17:09:10.587Z,4.78
2022-11-23T17:11:57.479Z,4.65
2022-11-23T17:14:49.509Z,4.60
2022-11-23T17:17:36.315Z,4.63
2022-11-23T17:20:23.760Z,4.53
2022-11-23T17:23:11.163Z,4.53
2022-11-23T17:25:58.201Z,4.60
2022-11-23T17:28:45.136Z,4.53
2022-11-23T17:31:32.193Z,4.46
2022-11-23T17:34:19.060Z,4.46
2022-11-23T17:37:06.506Z,4.53
2022-11-23T17:39:53.560Z,4.46
2022-11-23T17:42:40.487Z,4.46
2022-11-23T17:45:27.570Z,4.47
2022-11-23T17:48:16.109Z,4.41
2022-11-23T17:51:02.987Z,4.33
2022-11-23T17:53:50.131Z,4.27
2022-11-23T17:56:37.736Z,4.23
2022-11-23T17:59:24.680Z,4.23
2022-11-23T18:02:11.697Z,4.24
2022-11-23T18:04:58.601Z,4.12
2022-11-23T18:07:45.531Z,4.06
2022-11-23T18:10:32.457Z,4.06
2022-11-23T18:13:19.339Z,3.90
2022-11-23T18:16:07.472Z,3.89
2022-11-23T18:18:54.384Z,3.91
2022-11-23T18:21:42.282Z,3.87
2022-11-23T18:24:29.170Z,3.89
2022-11-23T18:27:16.356Z,3.81
2022-11-23T18:30:04.548Z,3.84
2022-11-23T18:32:51.423Z,3.76
2022-11-23T18:35:38.426Z,3.79
2022-11-23T18:38:25.270Z,3.80
2022-11-23T18:41:16.741Z,3.85
2022-11-23T18:44:03.819Z,3.75
2022-11-23T18:46:50.787Z,3.76
2022-11-23T18:49:37.867Z,3.90
2022-11-23T18:52:24.691Z,4.04
2022-11-23T18:55:11.463Z,4.10
2022-11-23T18:57:58.352Z,3.98
2022-11-23T19:00:45.319Z,3.93
2022-11-23T19:03:33.131Z,3.87
2022-11-23T19:06:22.121Z,3.86
2022-11-23T19:09:14.189Z,3.80
2022-11-23T19:12:01.215Z,3.92
2022-11-23T19:14:49.804Z,3.97
2022-11-23T19:17:37.397Z,4.04
2022-11-23T19:20:24.863Z,4.11
2022-11-23T19:23:11.695Z,4.24
2022-11-23T19:26:02.208Z,4.19
2022-11-23T19:28:50.248Z,4.30
2022-11-23T19:31:37.297Z,4.30
2022-11-23T19:34:24.270Z,4.34
2022-11-23T19:37:11.112Z,4.47
2022-11-23T19:39:57.945Z,4.55
2022-11-23T19:42:44.701Z,4.67
2022-11-23T19:45:31.552Z,4.75
2022-11-23T19:48:18.466Z,4.66
2022-11-23T19:51:11.837Z,4.76
2022-11-23T19:54:02.064Z,4.83
2022-11-23T19:56:52.331Z,4.79
2022-11-23T19:59:39.182Z,4.67
2022-11-23T20:02:26.047Z,4.63
2022-11-23T20:05:13.007Z,4.60
2022-11-23T20:08:01.898Z,4.36
2022-11-23T20:10:48.743Z,4.33
2022-11-23T20:13:36.443Z,4.42
2022-11-23T20:16:24.767Z,4.50
2022-11-23T20:19:11.794Z,4.35
2022-11-23T20:21:58.739Z,4.27
2022-11-23T20:24:45.614Z,4.18
2022-11-23T20:27:32.414Z,4.31
2022-11-23T20:30:19.321Z,4.37
2022-11-23T20:33:06.240Z,4.22
2022-11-23T20:35:53.114Z,4.18
2022-11-23T20:38:40.559Z,4.07
2022-11-23T20:41:29.646Z,3.86
2022-11-23T20:44:16.798Z,3.59
2022-11-23T20:47:04.047Z,3.65
2022-11-23T20:49:51.195Z,3.55
2022-11-23T20:52:37.971Z,3.42
2022-11-23T20:55:24.785Z,3.39
2022-11-23T20:58:12.835Z,3.03
2022-11-23T21:01:11.322Z,3.10
2022-11-23T21:03:59.410Z,2.87
2022-11-23T21:06:46.259Z,2.90
2022-11-23T21:09:33.279Z,2.90
2022-11-23T21:12:38.547Z,2.79
2022-11-23T21:15:25.322Z,2.86
2022-11-23T21:18:12.494Z,2.70
2022-11-23T21:20:59.379Z,2.66
2022-11-23T21:23:50.868Z,2.77
2022-11-23T21:26:39.387Z,3.17
2022-11-23T21:29:26.718Z,3.04
2022-11-23T21:32:16.515Z,2.94
2022-11-23T21:35:03.378Z,2.92
2022-11-23T21:37:50.367Z,3.23
2022-11-23T21:40:37.188Z,3.07
2022-11-23T21:43:24.894Z,2.89
2022-11-23T21:46:12.846Z,2.80
2022-11-23T21:49:00.559Z,2.68
2022-11-23T21:51:47.894Z,2.79
2022-11-23T21:54:35.540Z,2.76
2022-11-23T21:57:22.572Z,2.67
2022-11-23T22:00:09.937Z,2.46
2022-11-23T22:02:57.975Z,2.42
2022-11-23T22:05:55.086Z,2.30
2022-11-23T22:08:52.848Z,2.31
2022-11-23T22:11:41.742Z,2.20
2022-11-23T22:14:28.608Z,2.26
2022-11-23T22:17:15.440Z,2.18
2022-11-23T22:20:02.252Z,2.08
2022-11-23T22:22:49.118Z,2.17
2022-11-23T22:25:36.276Z,2.17
2022-11-23T22:28:23.056Z,2.28
2022-11-23T22:31:12.183Z,2.28
2022-11-23T22:33:59.212Z,2.25
2022-11-23T22:36:46.075Z,2.40
2022-11-23T22:39:33.216Z,2.37
2022-11-23T22:42:20.200Z,2.48
2022-11-23T22:45:07.650Z,2.60
2022-11-23T22:47:54.442Z,2.66
2022-11-23T22:50:41.216Z,2.74
2022-11-23T22:53:29.631Z,2.89
2022-11-23T22:56:17.965Z,3.02
2022-11-23T22:59:05.755Z,2.98
2022-11-23T23:01:52.533Z,3.02
2022-11-23T23:04:39.328Z,2.97
2022-11-23T23:07:26.186Z,3.04
2022-11-23T23:10:12.996Z,3.11
2022-11-23T23:12:59.766Z,3.24
2022-11-23T23:15:46.801Z,3.30
2022-11-23T23:18:34.139Z,3.48
2022-11-23T23:21:21.984Z,3.63
2022-11-23T23:24:09.490Z,3.68
2022-11-23T23:26:56.299Z,3.73
2022-11-23T23:29:43.835Z,3.72
2022-11-23T23:32:30.887Z,3.71
2022-11-23T23:35:17.666Z,3.75
2022-11-23T23:38:04.516Z,3.77
2022-11-23T23:40:54.263Z,3.56
2022-11-23T23:43:41.979Z,3.51
2022-11-23T23:46:28.733Z,3.37
2022-11-23T23:49:15.534Z,3.46
2022-11-23T23:52:04.352Z,3.50
2022-11-23T23:54:51.158Z,3.61
2022-11-23T23:57:37.936Z,3.64
